createdAt,value
2022-10-16T00:00:21.783Z,34.10
2022-10-16T00:03:12.694Z,31.38
2022-10-16T00:05:43.883Z,31.60
2022-10-16T00:08:14.745Z,30.35
2022-10-16T00:10:44.713Z,31.67
2022-10-16T00:13:14.076Z,31.85
2022-10-16T00:15:45.222Z,31.97
2022-10-16T00:18:17.189Z,29.08
2022-10-16T00:20:47.232Z,31.58
2022-10-16T00:23:16.625Z,33.42
2022-10-16T00:25:46.312Z,31.45
2022-10-16T00:28:15.674Z,29.42
2022-10-16T00:30:45.885Z,32.87
2022-10-16T00:33:16.667Z,31.73
2022-10-16T00:35:46.243Z,30.88
2022-10-16T00:38:15.672Z,31.02
2022-10-16T00:40:45.668Z,30.70
2022-10-16T00:43:36.686Z,29.90
2022-10-16T00:46:12.416Z,29.98
2022-10-16T00:48:43.542Z,30.10
2022-10-16T00:51:13.782Z,30.73
2022-10-16T00:53:43.200Z,29.30
2022-10-16T00:56:12.760Z,27.48
2022-10-16T00:58:42.140Z,30.38
2022-10-16T01:01:12.054Z,28.67
2022-10-16T01:03:43.185Z,27.75
2022-10-16T01:06:26.270Z,28.35
2022-10-16T01:09:10.044Z,28.90
2022-10-16T01:11:51.821Z,28.23
2022-10-16T01:14:28.593Z,24.75
2022-10-16T01:17:02.977Z,25.30
2022-10-16T01:20:03.842Z,26.52
2022-10-16T01:22:44.753Z,26.35
2022-10-16T01:25:21.305Z,27.85
2022-10-16T01:27:54.040Z,27.05
2022-10-16T01:30:28.665Z,25.60
2022-10-16T01:33:02.088Z,26.25
2022-10-16T01:35:35.252Z,25.55
2022-10-16T01:38:09.804Z,25.55
2022-10-16T01:40:43.068Z,22.85
2022-10-16T01:43:17.579Z,24.45
2022-10-16T01:45:48.472Z,25.63
2022-10-16T01:48:21.588Z,25.38
2022-10-16T01:50:58.312Z,23.02
2022-10-16T01:53:29.107Z,23.92
2022-10-16T01:56:00.574Z,20.92
2022-10-16T01:58:35.950Z,19.95
2022-10-16T02:01:07.282Z,21.08
2022-10-16T02:03:39.189Z,21.15
2022-10-16T02:06:09.644Z,20.05
2022-10-16T02:11:09.773Z,21.30
2022-10-16T02:13:46.091Z,19.55
2022-10-16T02:16:16.513Z,20.13
2022-10-16T02:18:47.089Z,19.42
2022-10-16T02:21:21.976Z,20.27
2022-10-16T02:24:00.416Z,19.15
2022-10-16T02:26:34.592Z,20.42
2022-10-16T02:29:10.763Z,19.63
2022-10-16T02:31:46.917Z,20.60
2022-10-16T02:34:18.770Z,20.35
2022-10-16T02:36:50.983Z,19.25
2022-10-16T02:39:22.332Z,19.88
2022-10-16T02:41:51.797Z,19.50
2022-10-16T02:44:22.897Z,19.80
2022-10-16T02:49:21.449Z,19.80
2022-10-16T02:51:50.822Z,19.23
2022-10-16T02:54:20.785Z,20.43
2022-10-16T02:56:50.192Z,20.27
2022-10-16T02:59:21.597Z,21.02
2022-10-16T03:01:50.844Z,20.58
2022-10-16T03:04:20.474Z,20.92
2022-10-16T03:06:49.845Z,21.50
2022-10-16T03:09:19.748Z,22.48
2022-10-16T03:11:49.105Z,22.70
2022-10-16T03:14:19.135Z,22.25
2022-10-16T03:16:49.953Z,24.35
2022-10-16T03:19:20.698Z,22.10
2022-10-16T03:21:50.185Z,23.00
2022-10-16T03:24:19.880Z,23.00
2022-10-16T03:26:49.802Z,21.30
2022-10-16T03:29:19.800Z,23.50
2022-10-16T03:31:50.927Z,22.25
2022-10-16T03:34:20.761Z,23.73
2022-10-16T03:36:50.145Z,23.38
2022-10-16T03:39:20.133Z,24.35
2022-10-16T03:41:49.497Z,22.52
2022-10-16T03:44:19.524Z,23.30
2022-10-16T03:46:50.230Z,20.15
2022-10-16T03:49:20.245Z,23.80
2022-10-16T03:51:49.514Z,22.05
2022-10-16T03:54:19.506Z,23.10
2022-10-16T03:56:48.748Z,23.30
2022-10-16T03:59:18.929Z,23.20
2022-10-16T04:01:49.736Z,23.02
2022-10-16T04:04:19.520Z,24.10
2022-10-16T04:06:48.757Z,23.30
2022-10-16T04:09:18.773Z,25.95
2022-10-16T04:11:48.259Z,24.63
2022-10-16T04:14:17.955Z,23.80
2022-10-16T04:16:47.236Z,22.77
2022-10-16T04:19:18.651Z,22.30
2022-10-16T04:24:17.400Z,24.52
2022-10-16T04:26:46.633Z,22.83
2022-10-16T04:29:16.722Z,23.83
2022-10-16T04:31:46.247Z,22.92
2022-10-16T04:34:15.790Z,23.75
2022-10-16T04:36:46.574Z,25.05
2022-10-16T04:39:16.391Z,23.90
2022-10-16T04:41:45.874Z,24.15
2022-10-16T04:44:15.941Z,24.10
2022-10-16T04:46:45.648Z,23.65
2022-10-16T04:49:15.680Z,24.13
2022-10-16T04:51:46.376Z,26.80
2022-10-16T04:54:16.523Z,26.42
2022-10-16T04:56:48.614Z,26.95
2022-10-16T04:59:19.205Z,25.70
2022-10-16T05:01:48.562Z,25.05
2022-10-16T05:04:18.690Z,26.80
2022-10-16T05:06:50.291Z,25.50
2022-10-16T05:09:20.157Z,26.95
2022-10-16T05:11:49.583Z,27.35
2022-10-16T05:14:19.770Z,27.17
2022-10-16T05:16:49.634Z,28.35
2022-10-16T05:19:27.388Z,26.88
2022-10-16T05:21:59.209Z,26.25
2022-10-16T05:24:29.105Z,28.77
2022-10-16T05:26:58.717Z,26.92
2022-10-16T05:29:28.697Z,25.90
2022-10-16T05:31:57.941Z,29.17
2022-10-16T05:34:27.804Z,29.77
2022-10-16T05:36:59.217Z,27.58
2022-10-16T05:39:29.080Z,26.42
2022-10-16T05:41:58.377Z,28.40
2022-10-16T05:44:28.033Z,28.70
2022-10-16T05:46:57.304Z,28.13
2022-10-16T05:49:27.160Z,27.98
2022-10-16T05:51:57.843Z,27.77
2022-10-16T05:54:27.685Z,27.60
2022-10-16T05:56:56.911Z,26.92
2022-10-16T05:59:26.922Z,28.23
2022-10-16T06:01:56.168Z,27.38
2022-10-16T06:04:26.140Z,29.00
2022-10-16T06:06:55.509Z,27.92
2022-10-16T06:09:26.921Z,28.70
2022-10-16T06:14:25.361Z,27.33
2022-10-16T06:16:54.708Z,29.67
2022-10-16T06:19:25.173Z,28.33
2022-10-16T06:21:54.427Z,27.95
2022-10-16T06:24:24.000Z,29.17
2022-10-16T06:26:54.806Z,27.48
2022-10-16T06:29:24.300Z,29.55
2022-10-16T06:31:54.230Z,28.70
2022-10-16T06:34:24.217Z,29.42
2022-10-16T06:36:53.581Z,29.77
2022-10-16T06:39:23.531Z,30.07
2022-10-16T06:41:54.246Z,27.92
2022-10-16T06:44:24.143Z,28.73
2022-10-16T06:46:53.501Z,27.83
2022-10-16T06:49:24.290Z,29.25
2022-10-16T06:51:53.597Z,30.67
2022-10-16T06:54:23.505Z,30.20
2022-10-16T06:56:55.721Z,31.13
2022-10-16T06:59:25.837Z,31.35
2022-10-16T07:01:55.066Z,32.55
2022-10-16T07:04:24.813Z,32.63
2022-10-16T07:06:54.048Z,31.00
2022-10-16T07:09:24.097Z,33.57
2022-10-16T07:11:54.853Z,32.45
2022-10-16T07:14:25.142Z,31.88
2022-10-16T07:16:54.575Z,30.85
2022-10-16T07:19:24.545Z,30.07
2022-10-16T07:21:53.924Z,31.63
2022-10-16T07:24:23.926Z,30.73
2022-10-16T07:26:54.814Z,32.83
2022-10-16T07:29:25.133Z,33.15
2022-10-16T07:31:54.368Z,31.00
2022-10-16T07:34:24.277Z,34.53
2022-10-16T07:36:53.873Z,33.92
2022-10-16T07:39:23.843Z,34.05
2022-10-16T07:41:54.666Z,33.47
2022-10-16T07:44:24.994Z,32.17
2022-10-16T07:46:54.236Z,33.75
2022-10-16T07:49:24.235Z,33.70
2022-10-16T07:51:53.698Z,31.75
2022-10-16T07:54:23.589Z,34.72
2022-10-16T07:56:54.280Z,33.17
2022-10-16T07:59:24.207Z,32.10
2022-10-16T08:01:53.506Z,32.30
2022-10-16T08:04:23.438Z,31.53
2022-10-16T08:06:52.697Z,30.33
2022-10-16T08:09:22.571Z,29.83
2022-10-16T08:11:53.162Z,30.33
2022-10-16T08:14:24.642Z,30.52
2022-10-16T08:16:54.678Z,30.58
2022-10-16T08:19:24.720Z,30.23
2022-10-16T08:21:53.953Z,29.30
2022-10-16T08:24:23.972Z,28.33
2022-10-16T08:26:55.801Z,27.83
2022-10-16T08:29:27.140Z,28.00
2022-10-16T08:34:26.288Z,26.27
2022-10-16T08:36:56.401Z,26.80
2022-10-16T08:39:26.418Z,26.92
2022-10-16T08:42:13.102Z,26.45
2022-10-16T08:45:03.953Z,27.75
2022-10-16T08:47:46.688Z,24.38
2022-10-16T08:50:21.662Z,27.27
2022-10-16T08:52:51.289Z,26.92
2022-10-16T08:55:36.403Z,26.20
2022-10-16T08:58:16.394Z,24.52
2022-10-16T09:00:50.634Z,23.83
2022-10-16T09:03:46.262Z,24.40
2022-10-16T09:06:32.509Z,24.08
2022-10-16T09:09:14.800Z,24.98
2022-10-16T09:11:51.846Z,26.40
2022-10-16T09:14:38.444Z,24.48
2022-10-16T09:17:23.139Z,23.35
2022-10-16T09:19:57.879Z,24.90
2022-10-16T09:22:31.370Z,21.70
2022-10-16T09:25:04.481Z,23.30
2022-10-16T09:27:34.365Z,23.13
2022-10-16T09:30:03.869Z,22.30
2022-10-16T09:32:35.128Z,22.48
2022-10-16T09:35:05.196Z,22.90
2022-10-16T09:40:07.484Z,21.50
2022-10-16T09:42:39.765Z,21.85
2022-10-16T09:45:22.717Z,22.13
2022-10-16T09:47:57.065Z,22.15
2022-10-16T09:50:29.921Z,20.27
2022-10-16T09:53:14.082Z,21.85
2022-10-16T09:55:52.189Z,21.20
2022-10-16T09:58:24.959Z,21.10
2022-10-16T10:00:56.630Z,21.00
2022-10-16T10:03:38.577Z,21.40
2022-10-16T10:06:19.776Z,20.75
2022-10-16T10:09:08.680Z,20.63
2022-10-16T10:11:56.033Z,21.73
2022-10-16T10:14:29.888Z,21.90
2022-10-16T10:17:15.997Z,22.30
2022-10-16T10:19:54.118Z,23.25
2022-10-16T10:22:31.452Z,22.75
2022-10-16T10:25:26.625Z,20.80
2022-10-16T10:28:17.095Z,23.17
2022-10-16T10:30:54.090Z,21.42
2022-10-16T10:33:31.445Z,20.77
2022-10-16T10:36:12.289Z,21.77
2022-10-16T10:38:49.405Z,20.92
2022-10-16T10:41:58.923Z,20.30
2022-10-16T10:44:39.962Z,20.63
2022-10-16T10:47:15.409Z,19.83
2022-10-16T10:49:56.968Z,19.55
2022-10-16T10:52:51.516Z,17.42
2022-10-16T10:55:27.681Z,18.58
2022-10-16T10:58:31.063Z,18.30
2022-10-16T11:01:11.197Z,18.70
2022-10-16T11:04:11.550Z,19.48
2022-10-16T11:06:46.060Z,18.05
2022-10-16T11:09:23.180Z,17.55
2022-10-16T11:11:58.129Z,18.10
2022-10-16T11:14:34.010Z,18.48
2022-10-16T11:17:13.290Z,19.02
2022-10-16T11:19:47.515Z,17.80
2022-10-16T11:22:22.365Z,16.27
2022-10-16T11:25:00.834Z,16.95
2022-10-16T11:27:38.797Z,16.17
2022-10-16T11:30:16.750Z,16.38
2022-10-16T11:32:56.745Z,14.52
2022-10-16T11:35:35.063Z,14.07
2022-10-16T11:38:06.594Z,15.05
2022-10-16T11:40:44.018Z,14.35
2022-10-16T11:43:18.433Z,13.93
2022-10-16T11:45:52.036Z,13.30
2022-10-16T11:48:29.362Z,12.70
2022-10-16T11:51:05.695Z,12.88
2022-10-16T11:53:51.799Z,13.70
2022-10-16T11:56:23.940Z,11.50
2022-10-16T11:58:59.229Z,11.27
2022-10-16T12:01:36.663Z,10.65
2022-10-16T12:04:19.965Z,11.48
2022-10-16T12:06:53.731Z,10.45
2022-10-16T12:09:27.395Z,10.52
2022-10-16T12:11:58.681Z,9.88
2022-10-16T12:15:11.423Z,10.45
2022-10-16T12:17:38.136Z,10.90
2022-10-16T12:20:24.898Z,9.48
2022-10-16T12:22:56.908Z,8.68
2022-10-16T12:25:29.986Z,9.75
2022-10-16T12:28:04.305Z,9.40
2022-10-16T12:30:36.046Z,8.38
2022-10-16T12:33:08.286Z,9.05
2022-10-16T12:35:46.500Z,8.57
2022-10-16T12:38:20.988Z,6.85
2022-10-16T12:41:00.562Z,7.25
2022-10-16T12:43:40.896Z,7.68
2022-10-16T12:46:26.248Z,7.40
2022-10-16T12:49:06.690Z,6.97
2022-10-16T12:51:39.169Z,6.97
2022-10-16T12:54:17.992Z,7.63
2022-10-16T12:56:59.138Z,7.55
2022-10-16T12:59:40.809Z,6.07
2022-10-16T13:02:36.969Z,7.13
2022-10-16T13:05:24.589Z,6.88
2022-10-16T13:08:03.717Z,5.82
2022-10-16T13:10:42.528Z,6.22
2022-10-16T13:13:32.518Z,5.78
2022-10-16T13:16:14.659Z,5.57
2022-10-16T13:18:56.869Z,4.97
2022-10-16T13:21:41.389Z,5.10
2022-10-16T13:24:21.180Z,5.82
2022-10-16T13:29:25.645Z,5.15
2022-10-16T13:34:25.950Z,6.57
2022-10-16T13:36:56.416Z,6.57
2022-10-16T13:39:27.416Z,6.30
2022-10-16T13:42:28.325Z,5.72
2022-10-16T13:44:59.082Z,5.90
2022-10-16T13:47:32.034Z,5.95
2022-10-16T13:50:07.007Z,6.07
2022-10-16T13:52:38.375Z,6.88
2022-10-16T13:57:37.781Z,6.20
2022-10-16T14:00:21.137Z,5.80
2022-10-16T14:02:59.939Z,6.00
2022-10-16T14:05:29.594Z,6.35
2022-10-16T14:08:00.092Z,6.18
2022-10-16T14:10:32.602Z,6.20
2022-10-16T14:13:05.989Z,6.07
2022-10-16T14:15:37.064Z,6.03
2022-10-16T14:18:08.657Z,6.40
2022-10-16T14:20:38.081Z,6.45
2022-10-16T14:23:23.175Z,5.72
2022-10-16T14:25:52.670Z,6.50
2022-10-16T14:28:24.394Z,7.05
2022-10-16T14:30:55.346Z,6.93
2022-10-16T14:33:34.457Z,6.72
2022-10-16T14:36:07.538Z,6.07
2022-10-16T14:38:38.337Z,6.65
2022-10-16T14:41:08.300Z,7.43
2022-10-16T14:43:40.020Z,6.95
2022-10-16T14:46:14.839Z,6.53
2022-10-16T14:48:49.125Z,6.60
2022-10-16T14:51:19.235Z,7.75
2022-10-16T14:53:49.365Z,6.63
2022-10-16T14:56:21.826Z,7.13
2022-10-16T14:58:53.858Z,7.40
2022-10-16T15:01:23.578Z,7.75
2022-10-16T15:03:56.368Z,7.45
2022-10-16T15:06:25.896Z,11.60
2022-10-16T15:08:55.959Z,7.97
2022-10-16T15:11:25.349Z,8.20
2022-10-16T15:13:55.245Z,8.80
2022-10-16T15:16:24.728Z,8.25
2022-10-16T15:18:55.773Z,9.30
2022-10-16T15:21:29.388Z,8.82
2022-10-16T15:23:59.620Z,10.07
2022-10-16T15:26:31.198Z,8.45
2022-10-16T15:29:00.817Z,9.73
2022-10-16T15:31:31.025Z,8.23
2022-10-16T15:34:05.514Z,8.75
2022-10-16T15:36:37.957Z,9.15
2022-10-16T15:39:14.678Z,9.27
2022-10-16T15:41:46.800Z,9.57
2022-10-16T15:44:16.682Z,9.05
2022-10-16T15:46:46.042Z,9.35
2022-10-16T15:49:17.785Z,9.10
2022-10-16T15:51:48.087Z,10.02
2022-10-16T15:54:18.099Z,9.52
2022-10-16T15:56:47.522Z,9.80
2022-10-16T15:59:17.666Z,10.55
2022-10-16T16:01:47.068Z,10.15
2022-10-16T16:04:42.919Z,9.98
2022-10-16T16:07:09.690Z,9.90
2022-10-16T16:09:39.275Z,11.32
2022-10-16T16:12:08.634Z,11.90
2022-10-16T16:14:38.641Z,10.55
2022-10-16T16:17:08.150Z,12.25
2022-10-16T16:19:39.625Z,11.95
2022-10-16T16:22:10.887Z,11.80
2022-10-16T16:24:41.999Z,12.02
2022-10-16T16:27:11.334Z,11.90
2022-10-16T16:29:40.914Z,10.90
2022-10-16T16:32:10.342Z,11.63
2022-10-16T16:34:42.034Z,12.02
2022-10-16T16:37:11.456Z,13.30
2022-10-16T16:39:41.695Z,12.75
2022-10-16T16:42:11.703Z,14.05
2022-10-16T16:44:41.756Z,14.15
2022-10-16T16:47:12.113Z,14.55
2022-10-16T16:49:43.545Z,14.60
2022-10-16T16:54:42.975Z,12.97
2022-10-16T16:57:12.261Z,13.45
2022-10-16T16:59:41.787Z,13.73
2022-10-16T17:02:11.828Z,12.35
2022-10-16T17:04:43.429Z,14.35
2022-10-16T17:07:12.823Z,12.77
2022-10-16T17:09:42.342Z,12.20
2022-10-16T17:12:11.570Z,15.45
2022-10-16T17:14:41.286Z,17.50
2022-10-16T17:17:10.712Z,13.88
2022-10-16T17:19:41.022Z,13.02
2022-10-16T17:22:11.857Z,13.70
2022-10-16T17:24:41.843Z,11.13
2022-10-16T17:27:12.725Z,12.65
2022-10-16T17:29:42.888Z,11.88
2022-10-16T17:32:12.665Z,13.38
2022-10-16T17:34:42.325Z,12.32
2022-10-16T17:37:15.727Z,13.15
2022-10-16T17:39:48.210Z,12.73
2022-10-16T17:42:17.537Z,13.00
2022-10-16T17:44:48.129Z,13.10
2022-10-16T17:47:17.679Z,14.00
2022-10-16T17:49:48.106Z,12.75
2022-10-16T17:52:19.164Z,12.38
2022-10-16T17:54:52.322Z,13.68
2022-10-16T17:57:22.159Z,13.40
2022-10-16T17:59:52.106Z,12.77
2022-10-16T18:02:21.548Z,14.63
2022-10-16T18:04:52.746Z,13.90
2022-10-16T18:07:23.999Z,14.02
2022-10-16T18:10:10.385Z,12.80
2022-10-16T18:12:41.302Z,12.65
2022-10-16T18:15:12.226Z,14.02
2022-10-16T18:17:41.661Z,13.07
2022-10-16T18:20:12.612Z,15.00
2022-10-16T18:22:43.665Z,13.27
2022-10-16T18:25:13.585Z,12.57
2022-10-16T18:27:43.233Z,12.50
2022-10-16T18:30:14.105Z,12.43
2022-10-16T18:32:43.395Z,13.40
2022-10-16T18:37:49.239Z,13.80
2022-10-16T18:40:19.368Z,13.93
2022-10-16T18:42:50.460Z,14.10
2022-10-16T18:45:20.353Z,12.27
2022-10-16T18:47:51.184Z,14.75
2022-10-16T18:50:21.120Z,16.45
2022-10-16T18:52:52.140Z,15.95
2022-10-16T18:55:23.530Z,14.63
2022-10-16T18:57:55.452Z,14.98
2022-10-16T19:00:25.602Z,15.40
2022-10-16T19:02:55.102Z,14.65
2022-10-16T19:05:25.443Z,14.65
2022-10-16T19:07:56.133Z,13.93
2022-10-16T19:10:25.840Z,13.90
2022-10-16T19:12:55.152Z,14.73
2022-10-16T19:15:24.874Z,13.10
2022-10-16T19:17:55.210Z,12.27
2022-10-16T19:20:25.098Z,12.27
2022-10-16T19:22:59.116Z,12.90
2022-10-16T19:25:29.382Z,12.15
2022-10-16T19:27:59.529Z,11.30
2022-10-16T19:30:29.926Z,11.27
2022-10-16T19:32:59.295Z,10.75
2022-10-16T19:35:29.862Z,11.33
2022-10-16T19:38:00.674Z,10.30
2022-10-16T19:40:30.879Z,10.48
2022-10-16T19:43:00.242Z,10.90
2022-10-16T19:45:29.884Z,10.45
2022-10-16T19:47:59.300Z,9.32
2022-10-16T19:50:29.562Z,9.15
2022-10-16T19:53:00.305Z,8.95
2022-10-16T19:55:33.411Z,9.50
2022-10-16T19:58:02.818Z,9.55
2022-10-16T20:00:32.406Z,8.70
2022-10-16T20:03:03.005Z,8.40
2022-10-16T20:05:33.113Z,8.73
2022-10-16T20:08:03.932Z,9.65
2022-10-16T20:10:35.483Z,9.07
2022-10-16T20:13:04.837Z,8.73
2022-10-16T20:15:34.897Z,7.22
2022-10-16T20:18:04.301Z,7.18
2022-10-16T20:20:34.303Z,8.55
2022-10-16T20:23:05.093Z,8.27
2022-10-16T20:25:37.473Z,6.85
2022-10-16T20:28:07.356Z,7.40
2022-10-16T20:30:37.674Z,6.70
2022-10-16T20:33:08.620Z,7.15
2022-10-16T20:35:40.103Z,7.28
2022-10-16T20:38:11.450Z,7.45
2022-10-16T20:40:43.142Z,7.85
2022-10-16T20:43:15.250Z,5.82
2022-10-16T20:45:45.646Z,6.95
2022-10-16T20:48:15.869Z,6.70
2022-10-16T20:50:45.492Z,6.25
2022-10-16T20:53:16.734Z,6.20
2022-10-16T20:55:46.320Z,6.00
2022-10-16T20:58:15.803Z,6.53
2022-10-16T21:00:46.416Z,6.50
2022-10-16T21:03:15.833Z,5.90
2022-10-16T21:05:45.894Z,6.07
2022-10-16T21:08:16.961Z,6.13
2022-10-16T21:10:46.825Z,6.30
2022-10-16T21:13:16.182Z,5.97
2022-10-16T21:15:46.161Z,4.90
2022-10-16T21:18:15.553Z,5.47
2022-10-16T21:20:45.682Z,5.00
2022-10-16T21:23:16.556Z,5.75
2022-10-16T21:25:50.533Z,6.28
2022-10-16T21:28:20.516Z,5.30
2022-10-16T21:30:50.644Z,4.68
2022-10-16T21:33:20.048Z,5.45
2022-10-16T21:35:50.041Z,4.18
2022-10-16T21:38:20.935Z,4.22
2022-10-16T21:40:51.144Z,4.38
2022-10-16T21:43:20.677Z,4.97
2022-10-16T21:45:50.484Z,4.80
2022-10-16T21:48:20.134Z,4.75
2022-10-16T21:50:50.293Z,4.43
2022-10-16T21:53:21.128Z,4.32
2022-10-16T21:55:51.346Z,4.15
2022-10-16T21:58:20.760Z,3.85
2022-10-16T22:00:50.773Z,4.03
2022-10-16T22:03:20.205Z,4.45
2022-10-16T22:05:50.655Z,4.28
2022-10-16T22:08:21.548Z,5.23
2022-10-16T22:10:51.659Z,4.45
2022-10-16T22:13:21.114Z,4.20
2022-10-16T22:15:52.514Z,4.72
2022-10-16T22:18:21.974Z,4.63
2022-10-16T22:20:51.997Z,4.90
2022-10-16T22:23:23.188Z,4.65
2022-10-16T22:25:53.345Z,4.80
2022-10-16T22:28:22.749Z,4.70
2022-10-16T22:30:52.686Z,5.40
2022-10-16T22:33:22.315Z,5.05
2022-10-16T22:35:52.363Z,4.75
2022-10-16T22:38:23.501Z,4.43
2022-10-16T22:40:53.587Z,4.95
2022-10-16T22:43:23.121Z,3.97
2022-10-16T22:45:53.134Z,3.92
2022-10-16T22:48:22.762Z,4.07
2022-10-16T22:50:52.418Z,4.13
2022-10-16T22:53:23.262Z,4.50
2022-10-16T22:55:52.971Z,5.00
2022-10-16T22:58:22.507Z,3.78
2022-10-16T23:00:53.014Z,4.75
2022-10-16T23:03:22.372Z,4.50
2022-10-16T23:05:52.673Z,4.30
2022-10-16T23:08:23.629Z,4.38
2022-10-16T23:10:53.641Z,4.55
2022-10-16T23:13:23.116Z,4.60
2022-10-16T23:15:52.801Z,4.95
2022-10-16T23:18:22.298Z,4.70
2022-10-16T23:20:51.948Z,5.43
2022-10-16T23:23:22.857Z,4.40
2022-10-16T23:25:53.120Z,5.28
2022-10-16T23:28:22.651Z,4.90
2022-10-16T23:30:52.702Z,5.05
2022-10-16T23:33:22.165Z,4.97
2022-10-16T23:35:52.338Z,4.90
2022-10-16T23:38:23.637Z,5.32
2022-10-16T23:40:53.267Z,5.05
2022-10-16T23:43:22.668Z,5.13
2022-10-16T23:45:52.329Z,5.13
2022-10-16T23:48:21.654Z,4.70
2022-10-16T23:50:51.405Z,5.32
2022-10-16T23:53:20.822Z,5.85
2022-10-16T23:55:52.550Z,5.57
2022-10-16T23:58:21.940Z,5.30
